sensor_id;sensor_type;location;lat;lon;timestamp;P1;P4;P2;P0;N10;N4;N25;N1;N05;TS
67098;SPS30;54288;53.046;5.668;2023-01-26T00:01:16;37.65;36.35;29.85;20.63;166.11;165.86;164.16;155.65;126.38;0.84
67098;SPS30;54288;53.046;5.668;2023-01-26T00:03:42;39.66;38.18;30.81;20.52;165.35;165.07;163.15;153.54;123.14;0.88
67098;SPS30;54288;53.046;5.668;2023-01-26T00:06:09;38.23;36.87;30.09;20.54;165.42;165.16;163.39;154.53;124.95;0.85
67098;SPS30;54288;53.046;5.668;2023-01-26T00:08:41;36.63;35.42;29.37;20.71;166.60;166.36;164.78;156.82;128.11;0.83
67098;SPS30;54288;53.046;5.668;2023-01-26T00:11:10;36.09;34.87;28.78;20.09;161.71;161.47;159.88;151.88;123.71;0.85
67098;SPS30;54288;53.046;5.668;2023-01-26T00:13:37;36.16;34.93;28.80;20.08;161.60;161.36;159.76;151.71;123.51;0.84
67098;SPS30;54288;53.046;5.668;2023-01-26T00:16:04;33.23;32.16;26.82;19.13;153.84;153.63;152.23;145.19;119.04;0.82
67098;SPS30;54288;53.046;5.668;2023-01-26T00:18:35;35.47;34.22;28.01;19.24;154.90;154.66;153.04;144.91;117.41;0.85
67098;SPS30;54288;53.046;5.668;2023-01-26T00:21:02;34.24;33.06;27.19;18.85;151.76;151.53;150.00;142.30;115.65;0.84
67098;SPS30;54288;53.046;5.668;2023-01-26T00:23:28;34.55;33.34;27.31;18.79;151.27;151.04;149.47;141.57;114.77;0.85
67098;SPS30;54288;53.046;5.668;2023-01-26T00:25:56;32.46;31.37;25.92;18.15;146.05;145.84;144.41;137.26;111.90;0.83
67098;SPS30;54288;53.046;5.668;2023-01-26T00:28:22;32.35;31.31;26.10;18.60;149.60;149.40;148.03;141.17;115.71;0.81
67098;SPS30;54288;53.046;5.668;2023-01-26T00:30:48;34.87;33.64;27.48;18.80;151.35;151.12;149.51;141.45;114.45;0.85
67098;SPS30;54288;53.046;5.668;2023-01-26T00:33:15;34.04;32.87;26.98;18.63;149.96;149.73;148.19;140.47;114.02;0.83
67098;SPS30;54288;53.046;5.668;2023-01-26T00:35:41;32.45;31.41;26.19;18.67;150.20;149.99;148.62;141.74;116.20;0.82
67098;SPS30;54288;53.046;5.668;2023-01-26T00:38:10;32.16;31.11;25.86;18.32;147.36;147.16;145.78;138.86;113.61;0.83
67098;SPS30;54288;53.046;5.668;2023-01-26T00:40:36;31.58;30.54;25.35;17.91;144.06;143.86;142.50;135.66;110.90;0.82
67098;SPS30;54288;53.046;5.668;2023-01-26T00:43:02;34.50;33.30;27.29;18.79;151.31;151.07;149.51;141.64;114.87;0.85
67098;SPS30;54288;53.046;5.668;2023-01-26T00:45:28;31.35;30.35;25.38;18.19;146.29;146.09;144.78;138.22;113.49;0.82
67098;SPS30;54288;53.046;5.668;2023-01-26T00:47:54;32.21;31.11;25.59;17.74;142.83;142.62;141.17;133.93;108.86;0.85
67098;SPS30;54288;53.046;5.668;2023-01-26T00:50:19;29.85;28.91;24.20;17.39;139.81;139.62;138.38;132.17;108.60;0.82
67098;SPS30;54288;53.046;5.668;2023-01-26T00:52:45;32.41;31.33;25.91;18.17;146.22;146.01;144.59;137.47;112.13;0.82
67098;SPS30;54288;53.046;5.668;2023-01-26T00:55:11;32.79;31.67;26.09;18.15;146.10;145.88;144.42;137.10;111.55;0.83
67098;SPS30;54288;53.046;5.668;2023-01-26T00:57:39;33.87;32.69;26.78;18.42;148.34;148.11;146.57;138.83;112.55;0.85
67098;SPS30;54288;53.046;5.668;2023-01-26T01:00:05;35.37;34.07;27.59;18.51;149.12;148.88;147.19;138.73;111.54;0.85
67098;SPS30;54288;53.046;5.668;2023-01-26T01:02:31;34.86;33.64;27.52;18.88;152.04;151.80;150.21;142.20;115.18;0.85
67098;SPS30;54288;53.046;5.668;2023-01-26T01:04:57;34.57;33.36;27.33;18.80;151.37;151.14;149.56;141.67;114.85;0.84
67098;SPS30;54288;53.046;5.668;2023-01-26T01:07:24;32.55;31.47;26.06;18.33;147.50;147.29;145.87;138.77;113.29;0.82
67098;SPS30;54288;53.046;5.668;2023-01-26T01:09:50;33.67;32.64;27.49;19.97;160.57;160.36;159.00;152.18;125.46;0.80
67098;SPS30;54288;53.046;5.668;2023-01-26T01:12:15;31.84;30.88;26.08;19.07;153.24;153.04;151.78;145.42;120.10;0.80
67098;SPS30;54288;53.046;5.668;2023-01-26T01:14:41;31.56;30.57;25.61;18.43;148.17;147.98;146.67;140.12;115.19;0.81
67098;SPS30;54288;53.046;5.668;2023-01-26T01:17:07;34.66;33.44;27.34;18.73;150.82;150.59;149.00;141.01;114.16;0.85
67098;SPS30;54288;53.046;5.668;2023-01-26T01:19:33;30.90;29.93;25.06;18.01;144.82;144.63;143.35;136.92;112.52;0.82
67098;SPS30;54288;53.046;5.668;2023-01-26T01:21:59;32.68;31.63;26.37;18.79;151.13;150.92;149.54;142.61;116.89;0.82
67098;SPS30;54288;53.046;5.668;2023-01-26T01:24:24;30.96;29.99;25.14;18.11;145.64;145.45;144.17;137.77;113.30;0.82
67098;SPS30;54288;53.046;5.668;2023-01-26T01:26:50;30.50;29.52;24.64;17.60;141.55;141.36;140.07;133.64;109.61;0.81
67098;SPS30;54288;53.046;5.668;2023-01-26T01:29:16;28.65;27.80;23.58;17.36;139.47;139.30;138.18;132.57;109.71;0.80
67098;SPS30;54288;53.046;5.668;2023-01-26T01:31:41;31.24;30.18;24.88;17.34;139.59;139.38;137.99;131.04;106.68;0.84
67098;SPS30;54288;53.046;5.668;2023-01-26T01:34:10;29.10;28.14;23.32;16.43;132.16;131.97;130.71;124.38;101.59;0.83
67098;SPS30;54288;53.046;5.668;2023-01-26T01:36:35;29.85;28.88;24.03;17.05;137.13;136.94;135.66;129.27;105.82;0.84
67098;SPS30;54288;53.046;5.668;2023-01-26T01:39:01;29.45;28.49;23.74;16.89;135.84;135.65;134.40;128.13;104.97;0.83
67098;SPS30;54288;53.046;5.668;2023-01-26T01:41:27;30.52;29.51;24.48;17.27;138.95;138.75;137.43;130.81;106.89;0.82
67098;SPS30;54288;53.046;5.668;2023-01-26T01:46:45;27.35;26.55;22.55;16.66;133.86;133.70;132.64;127.33;105.48;0.79
67098;SPS30;54288;53.046;5.668;2023-01-26T01:49:21;30.05;29.05;24.07;16.94;136.32;136.12;134.82;128.26;104.73;0.84
67098;SPS30;54288;53.046;5.668;2023-01-26T01:52:01;30.10;29.06;23.87;16.51;132.93;132.73;131.37;124.57;101.17;0.84
67098;SPS30;54288;53.046;5.668;2023-01-26T01:54:51;28.49;27.59;23.10;16.60;133.50;133.33;132.15;126.22;103.72;0.82
67098;SPS30;54288;53.046;5.668;2023-01-26T01:57:52;28.00;27.15;22.91;16.71;134.28;134.11;132.99;127.37;105.12;0.81
67098;SPS30;54288;53.046;5.668;2023-01-26T02:00:24;27.86;27.07;23.13;17.27;138.73;138.57;137.53;132.27;109.90;0.79
67098;SPS30;54288;53.046;5.668;2023-01-26T02:03:03;28.23;27.33;22.83;16.33;131.35;131.17;129.99;124.05;101.80;0.83
67098;SPS30;54288;53.046;5.668;2023-01-26T02:08:36;28.19;27.32;22.94;16.58;133.31;133.14;131.99;126.20;103.88;0.81
67098;SPS30;54288;53.046;5.668;2023-01-26T02:11:11;28.29;27.36;22.75;16.12;129.66;129.48;128.27;122.19;99.98;0.82
67098;SPS30;54288;53.046;5.668;2023-01-26T02:13:42;27.88;27.05;22.88;16.76;134.73;134.56;133.46;127.93;105.73;0.80
67098;SPS30;54288;53.046;5.668;2023-01-26T02:16:11;31.98;30.88;25.35;17.52;141.00;140.79;139.35;132.10;107.25;0.86
67098;SPS30;54288;53.046;5.668;2023-01-26T02:18:36;28.96;28.08;23.69;17.28;138.86;138.68;137.52;131.71;108.69;0.80
67098;SPS30;54288;53.046;5.668;2023-01-26T02:21:03;29.21;28.33;23.93;17.50;140.65;140.47;139.31;133.49;110.25;0.81
67098;SPS30;54288;53.046;5.668;2023-01-26T02:26:27;30.13;29.18;24.47;17.63;141.78;141.59;140.35;134.12;110.30;0.81
67098;SPS30;54288;53.046;5.668;2023-01-26T02:28:56;31.51;30.51;25.48;18.23;146.62;146.42;145.11;138.48;113.64;0.83
67098;SPS30;54288;53.046;5.668;2023-01-26T02:31:24;31.95;30.89;25.59;18.01;144.91;144.70;143.31;136.35;111.33;0.85
67098;SPS30;54288;53.046;5.668;2023-01-26T02:33:52;31.00;30.02;25.16;18.11;145.61;145.42;144.14;137.71;113.22;0.81
67098;SPS30;54288;53.046;5.668;2023-01-26T02:36:23;34.38;33.16;27.10;18.54;149.26;149.03;147.44;139.51;112.89;0.84
67098;SPS30;54288;53.046;5.668;2023-01-26T02:41:23;29.81;28.95;24.65;18.28;146.86;146.68;145.54;139.82;115.95;0.79
67098;SPS30;54288;53.046;5.668;2023-01-26T02:44:07;31.35;30.37;25.51;18.45;148.33;148.14;146.86;140.43;115.61;0.81
67098;SPS30;54288;53.046;5.668;2023-01-26T02:46:36;31.11;30.13;25.27;18.22;146.46;146.27;144.99;138.57;113.97;0.82
67098;SPS30;54288;53.046;5.668;2023-01-26T02:49:02;32.33;31.31;26.20;18.81;151.27;151.07;149.73;142.99;117.46;0.82
67098;SPS30;54288;53.046;5.668;2023-01-26T02:51:47;31.91;30.89;25.75;18.34;147.54;147.34;145.99;139.21;114.10;0.83
67098;SPS30;54288;53.046;5.668;2023-01-26T02:54:13;32.48;31.39;25.94;18.15;146.05;145.84;144.41;137.24;111.86;0.84
67098;SPS30;54288;53.046;5.668;2023-01-26T02:57:00;32.13;31.11;25.99;18.58;149.46;149.26;147.91;141.15;115.82;0.81
67098;SPS30;54288;53.046;5.668;2023-01-26T02:59:26;31.29;30.30;25.35;18.19;146.28;146.09;144.79;138.25;113.55;0.83
67098;SPS30;54288;53.046;5.668;2023-01-26T03:01:52;33.08;32.00;26.56;18.75;150.88;150.67;149.24;142.08;116.14;0.82
67098;SPS30;54288;53.046;5.668;2023-01-26T03:04:24;32.89;31.82;26.45;18.75;150.81;150.60;149.19;142.13;116.30;0.82
67098;SPS30;54288;53.046;5.668;2023-01-26T03:06:50;32.90;31.86;26.65;19.11;153.70;153.50;152.13;145.25;119.29;0.81
67098;SPS30;54288;53.046;5.668;2023-01-26T03:09:16;32.90;31.80;26.28;18.40;148.07;147.86;146.41;139.16;113.45;0.84
67098;SPS30;54288;53.046;5.668;2023-01-26T03:11:42;32.85;31.78;26.40;18.67;150.22;150.00;148.59;141.51;115.73;0.81
67098;SPS30;54288;53.046;5.668;2023-01-26T03:14:08;33.32;32.25;26.88;19.14;153.94;153.73;152.32;145.24;119.02;0.82
67098;SPS30;54288;53.046;5.668;2023-01-26T03:16:38;32.00;30.95;25.71;18.19;146.32;146.12;144.74;137.84;112.73;0.83
67098;SPS30;54288;53.046;5.668;2023-01-26T03:19:04;33.43;32.31;26.70;18.69;150.39;150.17;148.70;141.33;115.21;0.84
67098;SPS30;54288;53.046;5.668;2023-01-26T03:22:08;33.53;32.41;26.80;18.80;151.25;151.03;149.56;142.20;115.98;0.83
67098;SPS30;54288;53.046;5.668;2023-01-26T03:24:53;31.02;30.07;25.34;18.43;148.18;147.99;146.74;140.47;115.85;0.81
67098;SPS30;54288;53.046;5.668;2023-01-26T03:27:41;31.28;30.26;25.17;17.85;143.59;143.39;142.06;135.35;110.78;0.82
67098;SPS30;54288;53.046;5.668;2023-01-26T03:30:14;33.13;32.00;26.37;18.34;147.65;147.43;145.95;138.55;112.73;0.84
67098;SPS30;54288;53.046;5.668;2023-01-26T03:32:44;31.81;30.79;25.68;18.31;147.29;147.09;145.75;139.01;113.97;0.82
67098;SPS30;54288;53.046;5.668;2023-01-26T03:35:13;33.26;32.16;26.63;18.72;150.65;150.44;148.99;141.72;115.69;0.83
67098;SPS30;54288;53.046;5.668;2023-01-26T03:37:47;32.56;31.49;26.16;18.50;148.83;148.62;147.22;140.20;114.66;0.85
67098;SPS30;54288;53.046;5.668;2023-01-26T03:40:22;32.32;31.27;26.03;18.50;148.82;148.61;147.24;140.34;114.94;0.83
67098;SPS30;54288;53.046;5.668;2023-01-26T03:43:07;31.96;30.98;26.05;18.87;151.67;151.47;150.17;143.65;118.32;0.80
67098;SPS30;54288;53.046;5.668;2023-01-26T03:45:52;29.15;28.35;24.35;18.34;147.31;147.15;146.08;140.73;117.22;0.78
67098;SPS30;54288;53.046;5.668;2023-01-26T03:48:37;33.90;32.74;26.90;18.61;149.79;149.57;148.04;140.38;114.02;0.85
67098;SPS30;54288;53.046;5.668;2023-01-26T03:51:21;34.73;33.48;27.23;18.44;148.53;148.29;146.66;138.49;111.70;0.86
67098;SPS30;54288;53.046;5.668;2023-01-26T03:54:05;34.09;32.95;27.24;19.09;153.60;153.38;151.88;144.38;117.73;0.83
67098;SPS30;54288;53.046;5.668;2023-01-26T03:56:50;32.89;31.82;26.49;18.82;151.37;151.16;149.76;142.74;116.89;0.82
67098;SPS30;54288;53.046;5.668;2023-01-26T03:59:16;33.48;32.33;26.58;18.41;148.21;147.99;146.48;138.94;112.89;0.85
67098;SPS30;54288;53.046;5.668;2023-01-26T04:01:46;32.88;31.85;26.69;19.22;154.50;154.30;152.94;146.13;120.14;0.81
67098;SPS30;54288;53.046;5.668;2023-01-26T04:04:32;31.32;30.36;25.57;18.58;149.38;149.19;147.92;141.58;116.73;0.80
67098;SPS30;54288;53.046;5.668;2023-01-26T04:07:19;30.67;29.71;24.88;17.89;143.88;143.69;142.42;136.05;111.82;0.80
67098;SPS30;54288;53.046;5.668;2023-01-26T04:10:03;32.08;31.01;25.64;17.97;144.62;144.41;143.01;135.95;110.87;0.82
67098;SPS30;54288;53.046;5.668;2023-01-26T04:12:29;33.96;32.74;26.67;18.12;145.92;145.69;144.11;136.16;109.94;0.86
67098;SPS30;54288;53.046;5.668;2023-01-26T04:15:05;31.00;29.95;24.67;17.15;138.06;137.85;136.47;129.54;105.38;0.83
67098;SPS30;54288;53.046;5.668;2023-01-26T04:17:50;31.74;30.63;25.06;17.19;138.43;138.22;136.76;129.48;104.87;0.83
67098;SPS30;54288;53.046;5.668;2023-01-26T04:20:35;30.53;29.49;24.25;16.82;135.39;135.19;133.82;126.96;103.19;0.83
67098;SPS30;54288;53.046;5.668;2023-01-26T04:23:20;28.75;27.82;23.16;16.47;132.44;132.25;131.03;124.90;102.30;0.83
67098;SPS30;54288;53.046;5.668;2023-01-26T04:25:48;30.49;29.42;24.08;16.53;133.06;132.85;131.46;124.46;100.83;0.85
67098;SPS30;54288;53.046;5.668;2023-01-26T04:28:14;28.44;27.46;22.59;15.67;126.12;125.93;124.66;118.27;96.13;0.83
67098;SPS30;54288;53.046;5.668;2023-01-26T04:30:40;29.44;28.42;23.29;16.04;129.16;128.96;127.63;120.92;98.06;0.85
67098;SPS30;54288;53.046;5.668;2023-01-26T04:33:06;28.37;27.39;22.44;15.45;124.39;124.20;122.91;116.44;94.42;0.83
67098;SPS30;54288;53.046;5.668;2023-01-26T04:35:32;27.83;26.87;22.05;15.23;122.59;122.40;121.15;114.84;93.21;0.84
67098;SPS30;54288;53.046;5.668;2023-01-26T04:37:58;24.99;24.14;19.89;13.85;111.50;111.34;110.23;104.66;85.18;0.82
67098;SPS30;54288;53.046;5.668;2023-01-26T04:40:24;21.02;20.37;17.10;12.35;99.25;99.12;98.26;93.94;77.30;0.80
67098;SPS30;54288;53.046;5.668;2023-01-26T04:42:50;20.59;19.85;16.14;10.93;88.03;87.89;86.93;82.08;66.20;0.85
67098;SPS30;54288;53.046;5.668;2023-01-26T04:45:15;18.80;18.08;14.47;9.47;76.36;76.22;75.29;70.60;56.27;0.86
67098;SPS30;54288;53.046;5.668;2023-01-26T04:47:43;17.72;17.00;13.40;8.46;68.33;68.20;67.27;62.61;49.27;0.90
67098;SPS30;54288;53.046;5.668;2023-01-26T04:50:08;15.12;14.48;11.28;6.92;55.93;55.81;54.98;50.85;39.58;0.93
67098;SPS30;54288;53.046;5.668;2023-01-26T04:52:34;13.16;12.56;9.58;5.57;45.05;44.94;44.18;40.34;30.69;0.94
67098;SPS30;54288;53.046;5.668;2023-01-26T04:55:00;11.88;11.31;8.43;4.61;37.41;37.30;36.57;32.88;24.32;0.97
67098;SPS30;54288;53.046;5.668;2023-01-26T04:57:27;10.58;10.04;7.37;3.84;31.24;31.15;30.46;27.05;19.51;0.99
67098;SPS30;54288;53.046;5.668;2023-01-26T04:59:53;8.07;7.65;5.58;2.85;23.18;23.10;22.57;19.92;14.21;0.99
67098;SPS30;54288;53.046;5.668;2023-01-26T05:02:19;8.03;7.60;5.46;2.66;21.67;21.59;21.04;18.31;12.69;1.01
67098;SPS30;54288;53.046;5.668;2023-01-26T05:04:45;8.19;7.74;5.48;2.54;20.74;20.66;20.08;17.21;11.53;1.05
67098;SPS30;54288;53.046;5.668;2023-01-26T05:07:13;9.39;8.85;6.17;2.70;22.08;21.99;21.30;17.90;11.47;1.08
67098;SPS30;54288;53.046;5.668;2023-01-26T05:09:38;9.56;9.00;6.22;2.64;21.64;21.54;20.83;17.31;10.80;1.10
67098;SPS30;54288;53.046;5.668;2023-01-26T05:12:20;10.25;9.65;6.61;2.71;22.25;22.14;21.37;17.53;10.59;1.15
67098;SPS30;54288;53.046;5.668;2023-01-26T05:15:16;10.08;9.48;6.45;2.57;21.16;21.05;20.29;16.46;9.67;1.16
67098;SPS30;54288;53.046;5.668;2023-01-26T05:18:04;10.19;9.57;6.48;2.52;20.78;20.67;19.89;15.98;9.14;1.18
67098;SPS30;54288;53.046;5.668;2023-01-26T05:20:52;9.92;9.32;6.31;2.46;20.23;20.13;19.36;15.56;8.90;1.18
67098;SPS30;54288;53.046;5.668;2023-01-26T05:23:23;11.72;11.00;7.44;2.87;23.65;23.52;22.62;18.11;10.26;1.19
67098;SPS30;54288;53.046;5.668;2023-01-26T05:26:08;11.02;10.35;6.97;2.64;21.79;21.67;20.81;16.54;9.18;1.21
67098;SPS30;54288;53.046;5.668;2023-01-26T05:28:55;11.18;10.50;7.10;2.75;22.67;22.55;21.69;17.40;9.90;1.18
67098;SPS30;54288;53.046;5.668;2023-01-26T05:31:21;9.80;9.21;6.28;2.50;20.57;20.47;19.72;16.00;9.40;1.18
67098;SPS30;54288;53.046;5.668;2023-01-26T05:33:47;9.52;8.95;6.14;2.53;20.76;20.66;19.95;16.39;9.94;1.15
67098;SPS30;54288;53.046;5.668;2023-01-26T05:36:18;10.01;9.42;6.48;2.69;22.12;22.01;21.26;17.54;10.75;1.13
67098;SPS30;54288;53.046;5.668;2023-01-26T05:38:44;10.35;9.73;6.65;2.69;22.11;22.00;21.22;17.32;10.33;1.15
67098;SPS30;54288;53.046;5.668;2023-01-26T05:41:10;9.80;9.21;6.28;2.52;20.72;20.61;19.87;16.16;9.56;1.14
67098;SPS30;54288;53.046;5.668;2023-01-26T05:44:06;9.33;8.77;6.00;2.44;20.07;19.97;19.27;15.76;9.46;1.13
67098;SPS30;54288;53.046;5.668;2023-01-26T05:46:41;9.27;8.72;5.99;2.48;20.35;20.26;19.56;16.10;9.82;1.14
67098;SPS30;54288;53.046;5.668;2023-01-26T05:49:07;9.44;8.89;6.12;2.55;20.97;20.87;20.16;16.66;10.25;1.13
67098;SPS30;54288;53.046;5.668;2023-01-26T05:51:33;8.84;8.31;5.68;2.29;18.82;18.72;18.05;14.72;8.75;1.16
67098;SPS30;54288;53.046;5.668;2023-01-26T05:53:58;10.46;9.83;6.67;2.62;21.53;21.42;20.62;16.62;9.59;1.20
67098;SPS30;54288;53.046;5.668;2023-01-26T05:56:25;10.09;9.49;6.48;2.60;21.42;21.31;20.55;16.73;9.93;1.17
67098;SPS30;54288;53.046;5.668;2023-01-26T05:58:56;10.17;9.56;6.54;2.64;21.74;21.63;20.86;17.03;10.16;1.15
67098;SPS30;54288;53.046;5.668;2023-01-26T06:01:22;10.20;9.60;6.59;2.71;22.25;22.14;21.38;17.56;10.65;1.13
67098;SPS30;54288;53.046;5.668;2023-01-26T06:03:55;9.58;9.01;6.19;2.56;21.03;20.93;20.21;16.64;10.15;1.12
67098;SPS30;54288;53.046;5.668;2023-01-26T06:06:21;10.26;9.66;6.65;2.78;22.78;22.68;21.91;18.10;11.14;1.11
67098;SPS30;54288;53.046;5.668;2023-01-26T06:08:51;10.73;10.10;6.97;2.92;23.99;23.88;23.08;19.10;11.81;1.10
67098;SPS30;54288;53.046;5.668;2023-01-26T06:11:39;9.95;9.38;6.51;2.80;22.95;22.85;22.12;18.48;11.69;1.08
67098;SPS30;54288;53.046;5.668;2023-01-26T06:14:31;9.70;9.14;6.37;2.77;22.71;22.61;21.90;18.38;11.74;1.08
67098;SPS30;54288;53.046;5.668;2023-01-26T06:16:56;9.21;8.68;6.02;2.58;21.16;21.07;20.39;17.02;10.73;1.10
67098;SPS30;54288;53.046;5.668;2023-01-26T06:19:23;9.47;8.92;6.17;2.61;21.44;21.34;20.64;17.14;10.69;1.10
67098;SPS30;54288;53.046;5.668;2023-01-26T06:21:53;10.30;9.69;6.66;2.75;22.60;22.49;21.72;17.88;10.89;1.13
67098;SPS30;54288;53.046;5.668;2023-01-26T06:24:19;10.65;10.03;6.91;2.90;23.80;23.69;22.89;18.95;11.71;1.11
67098;SPS30;54288;53.046;5.668;2023-01-26T06:26:46;10.33;9.74;6.75;2.89;23.73;23.62;22.86;19.08;12.02;1.10
67098;SPS30;54288;53.046;5.668;2023-01-26T06:29:12;10.22;9.62;6.60;2.71;22.26;22.15;21.38;17.56;10.64;1.15
67098;SPS30;54288;53.046;5.668;2023-01-26T06:31:39;10.75;10.11;6.91;2.81;23.06;22.95;22.14;18.10;10.84;1.15
67098;SPS30;54288;53.046;5.668;2023-01-26T06:34:05;9.54;8.97;6.15;2.53;20.77;20.67;19.95;16.39;9.93;1.13
67098;SPS30;54288;53.046;5.668;2023-01-26T06:36:33;10.43;9.82;6.77;2.84;23.28;23.17;22.40;18.53;11.45;1.12
67098;SPS30;54288;53.046;5.668;2023-01-26T06:39:01;9.58;9.02;6.21;2.58;21.16;21.06;20.34;16.77;10.27;1.13
67098;SPS30;54288;53.046;5.668;2023-01-26T06:41:28;10.18;9.58;6.59;2.74;22.49;22.39;21.63;17.84;10.93;1.14
67098;SPS30;54288;53.046;5.668;2023-01-26T06:43:54;10.31;9.70;6.66;2.76;22.63;22.52;21.75;17.90;10.91;1.14
67098;SPS30;54288;53.046;5.668;2023-01-26T06:46:20;10.26;9.66;6.62;2.71;22.28;22.17;21.40;17.55;10.61;1.14
67098;SPS30;54288;53.046;5.668;2023-01-26T06:48:47;9.67;9.10;6.25;2.57;21.14;21.04;20.31;16.70;10.15;1.13
67098;SPS30;54288;53.046;5.668;2023-01-26T06:53:46;9.55;8.99;6.18;2.56;21.01;20.91;20.19;16.63;10.16;1.12
67098;SPS30;54288;53.046;5.668;2023-01-26T06:56:34;10.28;9.67;6.65;2.76;22.66;22.55;21.78;17.95;10.98;1.12
67098;SPS30;54288;53.046;5.668;2023-01-26T06:59:16;8.87;8.37;5.86;2.60;21.28;21.19;20.55;17.35;11.26;1.05
67098;SPS30;54288;53.046;5.668;2023-01-26T07:01:48;8.68;8.19;5.74;2.56;20.94;20.85;20.23;17.11;11.14;1.03
67098;SPS30;54288;53.046;5.668;2023-01-26T07:04:14;9.72;9.17;6.39;2.80;22.96;22.86;22.16;18.64;11.98;1.05
67098;SPS30;54288;53.046;5.668;2023-01-26T07:06:41;9.68;9.12;6.33;2.72;22.29;22.19;21.48;17.94;11.33;1.08
67098;SPS30;54288;53.046;5.668;2023-01-26T07:09:08;9.60;9.06;6.34;2.81;23.01;22.91;22.22;18.76;12.17;1.05
67098;SPS30;54288;53.046;5.668;2023-01-26T07:11:34;9.62;9.07;6.33;2.78;22.73;22.64;21.94;18.45;11.86;1.06
67098;SPS30;54288;53.046;5.668;2023-01-26T07:14:01;7.86;7.42;5.19;2.30;18.80;18.72;18.16;15.32;9.92;1.04
67098;SPS30;54288;53.046;5.668;2023-01-26T07:16:26;9.38;8.85;6.22;2.79;22.86;22.76;22.09;18.74;12.28;1.03
67098;SPS30;54288;53.046;5.668;2023-01-26T07:18:53;8.23;7.78;5.48;2.50;20.43;20.35;19.76;16.85;11.16;1.02
67098;SPS30;54288;53.046;5.668;2023-01-26T07:21:20;8.27;7.82;5.55;2.60;21.26;21.18;20.60;17.72;11.97;1.01
67098;SPS30;54288;53.046;5.668;2023-01-26T07:23:47;11.48;10.86;7.78;3.75;30.60;30.49;29.70;25.77;17.75;1.00
67098;SPS30;54288;53.046;5.668;2023-01-26T07:26:14;18.85;18.11;14.38;9.24;74.59;74.45;73.48;68.65;54.38;0.79
67098;SPS30;54288;53.046;5.668;2023-01-26T07:28:40;5.99;5.75;4.51;2.82;22.77;22.72;22.40;20.81;16.31;0.84
67098;SPS30;54288;53.046;5.668;2023-01-26T07:31:07;6.54;6.22;4.67;2.59;21.02;20.97;20.57;18.57;13.84;0.90
67098;SPS30;54288;53.046;5.668;2023-01-26T07:33:34;7.12;6.76;4.95;2.57;20.92;20.85;20.39;18.09;13.02;0.92
67098;SPS30;54288;53.046;5.668;2023-01-26T07:36:00;7.61;7.21;5.21;2.59;21.09;21.02;20.50;17.96;12.60;0.96
67098;SPS30;54288;53.046;5.668;2023-01-26T07:38:27;7.84;7.41;5.31;2.55;20.82;20.74;20.20;17.52;12.05;0.99
67098;SPS30;54288;53.046;5.668;2023-01-26T07:40:53;7.36;6.96;4.96;2.35;19.16;19.09;18.58;16.03;10.91;1.01
67098;SPS30;54288;53.046;5.668;2023-01-26T07:43:18;8.09;7.65;5.44;2.56;20.86;20.79;20.22;17.41;11.78;1.00
67098;SPS30;54288;53.046;5.668;2023-01-26T07:45:49;8.60;8.13;5.78;2.72;22.18;22.10;21.50;18.51;12.53;1.02
67098;SPS30;54288;53.046;5.668;2023-01-26T07:48:19;8.22;7.77;5.54;2.64;21.51;21.43;20.86;18.03;12.30;1.00
67098;SPS30;54288;53.046;5.668;2023-01-26T07:50:47;32.06;30.74;24.13;15.10;121.94;121.69;119.98;111.43;87.39;0.86
67098;SPS30;54288;53.046;5.668;2023-01-26T07:53:13;7.40;7.16;5.97;4.26;34.25;34.21;33.89;32.33;26.50;0.83
67098;SPS30;54288;53.046;5.668;2023-01-26T07:55:43;5.38;5.14;3.95;2.35;19.01;18.97;18.66;17.13;13.16;0.91
67098;SPS30;54288;53.046;5.668;2023-01-26T07:58:11;6.37;6.07;4.53;2.48;20.15;20.09;19.70;17.73;13.13;0.94
67098;SPS30;54288;53.046;5.668;2023-01-26T08:00:37;6.85;6.50;4.74;2.42;19.69;19.63;19.18;16.93;12.07;0.98
67098;SPS30;54288;53.046;5.668;2023-01-26T08:03:04;6.81;6.45;4.67;2.33;18.97;18.91;18.45;16.18;11.38;0.99
67098;SPS30;54288;53.046;5.668;2023-01-26T08:05:30;7.35;6.96;5.03;2.49;20.30;20.23;19.73;17.27;12.10;0.98
67098;SPS30;54288;53.046;5.668;2023-01-26T08:07:57;6.86;6.50;4.70;2.34;19.04;18.97;18.51;16.21;11.38;0.97
67098;SPS30;54288;53.046;5.668;2023-01-26T08:10:23;7.41;7.03;5.10;2.57;20.90;20.83;20.34;17.88;12.65;0.96
67098;SPS30;54288;53.046;5.668;2023-01-26T08:12:50;7.51;7.11;5.11;2.50;20.38;20.31;19.79;17.25;11.98;0.98
67098;SPS30;54288;53.046;5.668;2023-01-26T08:15:15;7.77;7.36;5.32;2.65;21.60;21.52;21.00;18.40;12.93;0.95
67098;SPS30;54288;53.046;5.668;2023-01-26T08:17:41;20.91;20.01;15.52;9.42;76.18;76.01;74.85;69.05;53.52;0.87
67098;SPS30;54288;53.046;5.668;2023-01-26T08:20:07;6.94;6.66;5.29;3.39;27.38;27.33;26.97;25.19;19.94;0.86
67098;SPS30;54288;53.046;5.668;2023-01-26T08:22:33;5.67;5.41;4.12;2.38;19.27;19.22;18.89;17.23;13.08;0.89
67098;SPS30;54288;53.046;5.668;2023-01-26T08:24:58;6.00;5.70;4.21;2.24;18.23;18.17;17.79;15.89;11.60;0.94
67098;SPS30;54288;53.046;5.668;2023-01-26T08:27:24;7.29;6.91;5.03;2.56;20.82;20.75;20.27;17.87;12.72;0.97
67098;SPS30;54288;53.046;5.668;2023-01-26T08:29:49;6.84;6.49;4.72;2.39;19.45;19.38;18.93;16.67;11.83;0.97
67098;SPS30;54288;53.046;5.668;2023-01-26T08:32:15;6.81;6.46;4.69;2.37;19.27;19.21;18.75;16.50;11.69;0.96
67098;SPS30;54288;53.046;5.668;2023-01-26T08:34:41;7.11;6.74;4.89;2.46;20.02;19.95;19.48;17.12;12.10;0.97
67098;SPS30;54288;53.046;5.668;2023-01-26T08:37:07;6.65;6.30;4.58;2.31;18.81;18.75;18.31;16.11;11.41;0.97
67098;SPS30;54288;53.046;5.668;2023-01-26T08:39:32;7.04;6.67;4.80;2.36;19.22;19.16;18.68;16.30;11.36;0.99
67098;SPS30;54288;53.046;5.668;2023-01-26T08:41:58;6.89;6.53;4.74;2.39;19.48;19.42;18.96;16.68;11.82;0.98
67098;SPS30;54288;53.046;5.668;2023-01-26T08:44:23;7.30;6.91;4.97;2.44;19.88;19.81;19.32;16.85;11.73;0.99
67098;SPS30;54288;53.046;5.668;2023-01-26T08:46:49;7.77;7.35;5.23;2.48;20.24;20.17;19.63;16.94;11.53;1.03
67098;SPS30;54288;53.046;5.668;2023-01-26T08:49:14;7.53;7.12;5.08;2.43;19.78;19.71;19.19;16.60;11.34;1.01
67098;SPS30;54288;53.046;5.668;2023-01-26T08:51:40;7.48;7.08;5.05;2.41;19.64;19.57;19.05;16.48;11.26;1.01
67098;SPS30;54288;53.046;5.668;2023-01-26T08:54:06;8.08;7.64;5.40;2.50;20.39;20.31;19.74;16.90;11.31;1.04
67098;SPS30;54288;53.046;5.668;2023-01-26T08:56:35;8.41;7.94;5.57;2.50;20.46;20.38;19.78;16.77;10.98;1.07
67098;SPS30;54288;53.046;5.668;2023-01-26T08:59:01;7.94;7.49;5.26;2.36;19.33;19.25;18.68;15.85;10.39;1.06
67098;SPS30;54288;53.046;5.668;2023-01-26T09:01:26;7.92;7.47;5.22;2.31;18.92;18.84;18.27;15.42;9.98;1.07
67098;SPS30;54288;53.046;5.668;2023-01-26T09:03:52;8.43;7.95;5.53;2.40;19.65;19.57;18.95;15.88;10.11;1.09
67098;SPS30;54288;53.046;5.668;2023-01-26T09:06:20;8.38;7.89;5.49;2.39;19.56;19.47;18.86;15.82;10.09;1.08
67098;SPS30;54288;53.046;5.668;2023-01-26T09:08:45;7.82;7.37;5.12;2.22;18.21;18.13;17.56;14.71;9.37;1.09
67098;SPS30;54288;53.046;5.668;2023-01-26T09:11:11;8.15;7.68;5.33;2.30;18.82;18.74;18.14;15.16;9.59;1.09
67098;SPS30;54288;53.046;5.668;2023-01-26T09:13:37;8.39;7.90;5.49;2.38;19.47;19.38;18.77;15.71;9.98;1.09